Airfield :
LOGIN :

Register | Disclaimer

   EN    FR    IT 

 










Legend :    VFR   Marginal VFR   IFR   Intensive IFR   Very Intensive IFR
Visi :
Ceiling :
>= 8 km
>= 3000ft
5 to 8 km
1000 to 3000 ft
1500m to 5 km
500 to 1000 ft
800 to 1500m
200 to 500 ft
< 800m
< 200 ft
Symbols :   Thunderstorms  Fog  Heavy snow  Heavy precipitations  Wind > 20 kt
SIGMETs :     Misc.  Thunderstorms  Icing  Turbulence  Mountain Waves  Volcanic Ashes






- Airport Elevation : 1860 ft
- IATA code : GRX


LEGR - Granada

CURRENT METAR :
  • 271400Z 29008KT 250V330 9999 FEW030 SCT050 BKN070 10/07 Q1005

EXPIRED METARs :
  • 271330Z 28007KT 240V320 9999 FEW030 SCT050 BKN070 10/07 Q1005
  • 271300Z 27008KT 240V310 9999 FEW030 SCT050 BKN070 10/07 Q1005
  • 271230Z 24004KT 210V270 9999 FEW030 SCT050 BKN070 10/07 Q1005
  • 271200Z 00000KT 9999 FEW030 SCT050 BKN070 10/07 Q1006

TAF TAF LEGR
Valid from the 27 at 15:00 until the 28 at 15:00 UTC


271400Z 2715/2815 27004KT 9999 SCT020 SCT040 TX12/2815Z TN04/2806Z
PROB30
TEMPO 2715/2718 4000 RA BKN014
TEMPO 2720/2812 3000 BR BKN010
PROB30
TEMPO 2805/2811 0600 FG VV002
PROB40
TEMPO 2812/2815 BKN010



MET'MAP, your aeronautical weather chart ! - Copyright ORBIFLY December 2007 - Disclaimer

ORBIFLY MET'MAP TEAM :

Programming & Development : Alexandra Zaïnal
Concept & original design : Baudouin d'Aumeries
Assistance for programming : Marc-Olivier Méhu
Technical & hardware support : Manuel Goepfert

Contact : metmap@orbifly.com




SOURCES & CREDITS :

   NOAA